KLFI/LFI METAR and TAF weather

Enter ICAO airport designator
Station Type Date Time Source
KLFI METAR 2019/12/08 06:56 UTC NOAA

KLFI 080656Z 04014KT 10SM CLR 02/M04 A3048 RMK AO2A SLP328 T00241037 $


Station Type Date Time Source
KLFI Decoded METAR 2019/12/08 06:56 UTC NOAA

Langley Air Force Base, VA, United States (KLFI) 37-05N 076-21W 6M
Dec 08, 2019 - 01:56 AM EST / 2019.12.08 0656 UTC
Wind: from the NE (040 degrees) at 16 MPH (14 KT):0
Visibility: 10 mile(s):0
Sky conditions: clear
Temperature: 36.3 F (2.4 C)
Dew Point: 25.3 F (-3.7 C)
Relative Humidity: 64%
Pressure (altimeter): 30.48 in. Hg (1032 hPa)
ob: KLFI 080656Z 04014KT 10SM CLR 02/M04 A3048 RMK AO2A SLP328 T00241037
cycle: 7

Station Type Date Time Source
KLFI TAF 2019/12/08 02:29 UTC NOAA

TAF KLFI 080200Z 0802/0908 04009KT 9999 SKC QNH3045INS
BECMG 0812/0813 11012G18KT 9999 SKC QNH3045INS
BECMG 0821/0822 VRB06KT 9999 FEW021 QNH3031INS
BECMG 0905/0906 VRB06KT 8000 -SHRA FEW021 QNH3026INS TX10/0819Z TN00/0802Z

Example: see airport list